Time;durP1;ratioP1;P1;durP2;ratioP2;P2;SDS_P1;SDS_P2;PMS_P1;PMS_P2;Temp;Humidity;BMP_temperature;BMP_pressure;BME280_temperature;BME280_humidity;BME280_pressure;Samples;Min_cycle;Max_cycle;Signal;HPM_P1;HPM_P2
2022/12/19 00:00:35;;;;;;;2.85;0.40;;;;;;;;;;6151452;23;20047;-57
2022/12/19 00:03:03;;;;;;;3.60;0.50;;;;;;;;;;6146191;23;20027;-56
2022/12/19 00:05:31;;;;;;;4.13;0.40;;;;;;;;;;6146491;23;20779;-57
2022/12/19 00:07:59;;;;;;;2.90;0.40;;;;;;;;;;6131608;23;20595;-57
2022/12/19 00:10:45;;;;;;;2.40;0.30;;;;;;;;;;6153847;23;20471;-57
2022/12/19 00:13:18;;;;;;;3.33;0.40;;;;;;;;;;6153608;23;20460;-56
2022/12/19 00:15:47;;;;;;;2.67;0.30;;;;;;;;;;6144439;23;20017;-57
2022/12/19 00:18:15;;;;;;;2.45;0.40;;;;;;;;;;6154217;23;20292;-58
2022/12/19 00:20:42;;;;;;;3.03;0.30;;;;;;;;;;6142825;23;20025;-56
2022/12/19 00:23:12;;;;;;;6.18;0.40;;;;;;;;;;6148741;23;20029;-58
2022/12/19 00:25:42;;;;;;;3.28;0.38;;;;;;;;;;6152420;23;20092;-57
2022/12/19 00:28:11;;;;;;;2.37;0.30;;;;;;;;;;6154439;23;20185;-58
2022/12/19 00:30:39;;;;;;;1.67;0.30;;;;;;;;;;6141560;23;20292;-59
2022/12/19 00:33:07;;;;;;;2.17;0.40;;;;;;;;;;6147881;23;20025;-58
2022/12/19 00:35:35;;;;;;;1.67;0.25;;;;;;;;;;6144046;23;20539;-58
2022/12/19 00:38:08;;;;;;;1.45;0.20;;;;;;;;;;6154507;23;20024;-58
2022/12/19 00:40:36;;;;;;;4.03;0.40;;;;;;;;;;6154931;23;20364;-57
2022/12/19 00:43:04;;;;;;;4.70;0.38;;;;;;;;;;6146957;23;20410;-57
2022/12/19 00:45:33;;;;;;;2.92;0.25;;;;;;;;;;6154897;23;20697;-58
2022/12/19 00:48:00;;;;;;;2.78;0.35;;;;;;;;;;6149361;23;20017;-58
2022/12/19 00:50:31;;;;;;;2.30;0.30;;;;;;;;;;6163707;23;20021;-58
2022/12/19 00:52:59;;;;;;;2.63;0.27;;;;;;;;;;6151508;23;20025;-57
2022/12/19 00:55:26;;;;;;;3.88;0.45;;;;;;;;;;6156560;23;20027;-58
2022/12/19 00:57:54;;;;;;;1.98;0.30;;;;;;;;;;6143099;23;20088;-58
2022/12/19 01:00:26;;;;;;;2.33;0.25;;;;;;;;;;6158074;23;20053;-58
2022/12/19 01:02:55;;;;;;;2.83;0.40;;;;;;;;;;6144595;23;20021;-57
2022/12/19 01:05:23;;;;;;;2.13;0.30;;;;;;;;;;6161111;23;20325;-57
2022/12/19 01:07:50;;;;;;;3.50;0.30;;;;;;;;;;6150506;23;20444;-58
2022/12/19 01:10:18;;;;;;;3.20;0.40;;;;;;;;;;6155800;23;20092;-58
2022/12/19 01:12:45;;;;;;;2.28;0.40;;;;;;;;;;6151381;23;20088;-57
2022/12/19 01:15:13;;;;;;;4.43;0.30;;;;;;;;;;6157329;23;20051;-58
2022/12/19 01:17:41;;;;;;;2.67;0.27;;;;;;;;;;6151027;23;20017;-58
2022/12/19 01:20:13;;;;;;;2.72;0.20;;;;;;;;;;6158210;23;20048;-58
2022/12/19 01:22:40;;;;;;;2.05;0.20;;;;;;;;;;6152069;23;20013;-57
2022/12/19 01:25:08;;;;;;;2.22;0.30;;;;;;;;;;6157883;23;20096;-58
2022/12/19 01:27:36;;;;;;;4.22;0.43;;;;;;;;;;6146953;23;20215;-56
2022/12/19 01:30:04;;;;;;;2.50;0.30;;;;;;;;;;6157698;23;20657;-58
2022/12/19 01:32:33;;;;;;;5.38;0.55;;;;;;;;;;6149929;23;20091;-58
2022/12/19 01:35:01;;;;;;;3.17;0.40;;;;;;;;;;6151280;23;20051;-58
2022/12/19 01:37:30;;;;;;;2.75;0.40;;;;;;;;;;6156009;23;20043;-58
2022/12/19 01:39:58;;;;;;;2.30;0.60;;;;;;;;;;6133730;23;20016;-57
2022/12/19 01:42:25;;;;;;;6.50;0.57;;;;;;;;;;6159698;23;20084;-57
2022/12/19 01:45:11;;;;;;;4.20;0.70;;;;;;;;;;6139924;23;20633;-58
2022/12/19 01:47:48;;;;;;;4.38;0.50;;;;;;;;;;6147436;23;20021;-58
2022/12/19 01:50:23;;;;;;;5.97;0.68;;;;;;;;;;6161166;23;20096;-58
2022/12/19 01:52:52;;;;;;;4.20;0.50;;;;;;;;;;6148721;23;20037;-57
2022/12/19 01:55:20;;;;;;;2.97;0.47;;;;;;;;;;6157171;23;20180;-58
2022/12/19 01:57:48;;;;;;;3.42;0.40;;;;;;;;;;6151811;23;20013;-58
2022/12/19 02:00:16;;;;;;;2.50;0.50;;;;;;;;;;6161451;23;20031;-56
2022/12/19 02:02:46;;;;;;;5.10;0.40;;;;;;;;;;6147150;23;20085;-58
2022/12/19 02:05:14;;;;;;;3.78;0.50;;;;;;;;;;6160541;23;20494;-58
2022/12/19 02:07:42;;;;;;;3.20;0.30;;;;;;;;;;6151151;23;20023;-58
2022/12/19 02:10:11;;;;;;;5.45;0.32;;;;;;;;;;6153428;23;20249;-58
2022/12/19 02:12:41;;;;;;;3.17;0.40;;;;;;;;;;6153123;23;20572;-58
2022/12/19 02:15:10;;;;;;;2.58;0.30;;;;;;;;;;6151091;23;20088;-58
2022/12/19 02:17:41;;;;;;;3.13;0.30;;;;;;;;;;6151721;23;20056;-58
2022/12/19 02:20:29;;;;;;;2.40;0.40;;;;;;;;;;6150751;23;20100;-57
2022/12/19 02:23:03;;;;;;;2.63;0.20;;;;;;;;;;6156414;23;20021;-58
2022/12/19 02:25:42;;;;;;;2.65;0.30;;;;;;;;;;6147564;23;20021;-59
2022/12/19 02:28:20;;;;;;;2.13;0.30;;;;;;;;;;6151380;23;20017;-57
2022/12/19 02:30:54;;;;;;;2.70;0.30;;;;;;;;;;6152879;23;20013;-59
2022/12/19 02:33:28;;;;;;;3.30;0.30;;;;;;;;;;6145083;23;20020;-59
2022/12/19 02:35:57;;;;;;;1.90;0.30;;;;;;;;;;6155740;23;20067;-56
2022/12/19 02:38:27;;;;;;;2.47;0.30;;;;;;;;;;6142931;23;20614;-59
2022/12/19 02:40:59;;;;;;;4.07;0.43;;;;;;;;;;6158876;23;20025;-56
2022/12/19 02:43:29;;;;;;;4.05;0.45;;;;;;;;;;6150273;23;20049;-59
2022/12/19 02:45:59;;;;;;;2.30;0.30;;;;;;;;;;6157374;23;20510;-59
2022/12/19 02:48:27;;;;;;;3.17;0.40;;;;;;;;;;6148655;23;20117;-59
2022/12/19 02:51:01;;;;;;;2.47;0.40;;;;;;;;;;6150831;23;20541;-59
2022/12/19 02:53:29;;;;;;;5.07;0.50;;;;;;;;;;6152730;23;20041;-59
2022/12/19 02:56:05;;;;;;;4.63;0.52;;;;;;;;;;6154254;23;20104;-57
2022/12/19 02:58:43;;;;;;;5.90;0.60;;;;;;;;;;6134475;23;20021;-58
2022/12/19 03:01:22;;;;;;;4.80;0.50;;;;;;;;;;6156540;23;20036;-59
2022/12/19 03:03:59;;;;;;;7.32;0.75;;;;;;;;;;6160280;23;20021;-59
2022/12/19 03:06:32;;;;;;;8.43;0.90;;;;;;;;;;6146653;23;20055;-59
2022/12/19 03:09:02;;;;;;;7.25;0.60;;;;;;;;;;6157049;23;20444;-59
2022/12/19 03:11:31;;;;;;;9.67;1.03;;;;;;;;;;6150264;23;20356;-58
2022/12/19 03:14:02;;;;;;;7.00;1.23;;;;;;;;;;6157578;23;20017;-58
2022/12/19 03:16:31;;;;;;;6.47;0.70;;;;;;;;;;6157022;23;20561;-58
2022/12/19 03:18:59;;;;;;;9.15;1.13;;;;;;;;;;6142704;23;20303;-58
2022/12/19 03:21:29;;;;;;;6.78;1.05;;;;;;;;;;6161688;23;20509;-58
2022/12/19 03:23:57;;;;;;;8.33;1.13;;;;;;;;;;6150629;23;20013;-58
2022/12/19 03:26:27;;;;;;;8.98;1.30;;;;;;;;;;6160206;23;20040;-58
2022/12/19 03:28:57;;;;;;;6.97;0.95;;;;;;;;;;6144030;23;20013;-58
2022/12/19 03:31:27;;;;;;;5.22;0.55;;;;;;;;;;6151609;23;20025;-58
2022/12/19 03:33:58;;;;;;;6.20;0.73;;;;;;;;;;6150891;23;20059;-58
2022/12/19 03:36:33;;;;;;;3.97;0.50;;;;;;;;;;6158350;23;20071;-58
2022/12/19 03:39:04;;;;;;;9.18;1.17;;;;;;;;;;6129276;23;20793;-58
2022/12/19 03:44:22;;;;;;;8.35;0.98;;;;;;;;;;6156096;23;20024;-58
2022/12/19 03:46:57;;;;;;;6.63;0.82;;;;;;;;;;6146759;23;20374;-58
2022/12/19 03:49:27;;;;;;;3.27;0.50;;;;;;;;;;6156107;23;20288;-58
2022/12/19 03:51:59;;;;;;;4.95;0.70;;;;;;;;;;6157033;23;20137;-58
2022/12/19 03:54:29;;;;;;;4.47;0.45;;;;;;;;;;6160558;23;20369;-58
2022/12/19 03:57:00;;;;;;;4.20;0.55;;;;;;;;;;6147879;23;20056;-57
2022/12/19 03:59:31;;;;;;;4.40;0.30;;;;;;;;;;6148846;23;20421;-58
2022/12/19 04:02:00;;;;;;;4.27;0.70;;;;;;;;;;6155901;23;20024;-58
2022/12/19 04:04:30;;;;;;;2.72;0.50;;;;;;;;;;6143847;23;20826;-58
2022/12/19 04:06:58;;;;;;;1.73;0.30;;;;;;;;;;6155720;23;20048;-57
2022/12/19 04:09:26;;;;;;;2.20;0.30;;;;;;;;;;6151685;23;20048;-58
2022/12/19 04:11:57;;;;;;;2.45;0.38;;;;;;;;;;6159928;23;20448;-58
2022/12/19 04:14:27;;;;;;;2.60;0.37;;;;;;;;;;6138433;23;20017;-58
2022/12/19 04:16:57;;;;;;;1.98;0.30;;;;;;;;;;6159218;23;20108;-59
2022/12/19 04:19:28;;;;;;;4.03;0.40;;;;;;;;;;6152138;23;20596;-58
2022/12/19 04:22:01;;;;;;;3.20;0.30;;;;;;;;;;6157758;23;20096;-58
2022/12/19 04:24:33;;;;;;;2.67;0.40;;;;;;;;;;6158855;23;20448;-58
2022/12/19 04:27:01;;;;;;;2.13;0.30;;;;;;;;;;6153894;23;20021;-58
2022/12/19 04:29:31;;;;;;;3.38;0.30;;;;;;;;;;6157921;23;20475;-58
2022/12/19 04:32:02;;;;;;;2.47;0.40;;;;;;;;;;6160825;23;20017;-58
2022/12/19 04:34:31;;;;;;;4.90;0.50;;;;;;;;;;6147468;23;20044;-58
2022/12/19 04:37:03;;;;;;;4.50;0.47;;;;;;;;;;6155081;23;20013;-58
2022/12/19 04:39:31;;;;;;;3.70;0.50;;;;;;;;;;6151337;23;20048;-58
2022/12/19 04:41:59;;;;;;;4.32;0.60;;;;;;;;;;6155929;23;20571;-57
2022/12/19 04:44:26;;;;;;;2.13;0.40;;;;;;;;;;6139562;23;20521;-58
2022/12/19 04:46:54;;;;;;;2.85;0.40;;;;;;;;;;6139591;23;20052;-58
2022/12/19 04:49:21;;;;;;;5.57;0.40;;;;;;;;;;6147524;23;20017;-58
2022/12/19 04:51:50;;;;;;;4.43;0.50;;;;;;;;;;6158016;23;20029;-58
2022/12/19 04:54:19;;;;;;;2.20;0.40;;;;;;;;;;6157164;23;20045;-58
2022/12/19 04:56:47;;;;;;;3.67;0.50;;;;;;;;;;6146375;23;20088;-59
2022/12/19 04:59:15;;;;;;;3.80;0.57;;;;;;;;;;6152775;23;20014;-58
2022/12/19 05:01:42;;;;;;;2.60;0.43;;;;;;;;;;6158237;23;20041;-58
2022/12/19 05:04:10;;;;;;;2.00;0.30;;;;;;;;;;6153651;23;20466;-58
2022/12/19 05:06:38;;;;;;;3.80;0.43;;;;;;;;;;6156767;23;20013;-58
2022/12/19 05:09:05;;;;;;;2.45;0.50;;;;;;;;;;6157969;23;20059;-58
2022/12/19 05:11:35;;;;;;;3.53;0.50;;;;;;;;;;6151559;23;20609;-58
2022/12/19 05:14:03;;;;;;;4.78;0.60;;;;;;;;;;6160615;23;20116;-57
2022/12/19 05:16:30;;;;;;;2.57;0.30;;;;;;;;;;6146393;23;20013;-58
2022/12/19 05:18:58;;;;;;;2.25;0.30;;;;;;;;;;6156489;23;20028;-57
2022/12/19 05:21:26;;;;;;;3.05;0.47;;;;;;;;;;6151964;23;20255;-57
2022/12/19 05:23:53;;;;;;;2.40;0.30;;;;;;;;;;6154613;23;20402;-59
2022/12/19 05:26:21;;;;;;;2.65;0.30;;;;;;;;;;6150935;23;20444;-58
2022/12/19 05:28:50;;;;;;;3.17;0.40;;;;;;;;;;6150529;23;20021;-58
2022/12/19 05:31:18;;;;;;;5.30;0.60;;;;;;;;;;6155345;23;20032;-58
2022/12/19 05:33:47;;;;;;;3.10;0.30;;;;;;;;;;6151644;23;20021;-58
2022/12/19 05:36:19;;;;;;;2.65;0.40;;;;;;;;;;6166044;23;20462;-57
2022/12/19 05:38:48;;;;;;;4.47;0.52;;;;;;;;;;6140489;23;20020;-58
2022/12/19 05:41:16;;;;;;;1.77;0.30;;;;;;;;;;6156516;23;20377;-57
2022/12/19 05:43:44;;;;;;;2.20;0.32;;;;;;;;;;6153632;23;20013;-58
2022/12/19 05:46:19;;;;;;;2.92;0.40;;;;;;;;;;6159314;23;20542;-59
2022/12/19 05:48:47;;;;;;;4.65;0.40;;;;;;;;;;6160151;23;20027;-58
2022/12/19 05:51:15;;;;;;;4.20;0.40;;;;;;;;;;6149699;23;20020;-58
2022/12/19 05:53:43;;;;;;;4.13;0.37;;;;;;;;;;6149550;23;20044;-58
2022/12/19 05:56:12;;;;;;;4.00;0.40;;;;;;;;;;6152155;23;20040;-58
2022/12/19 05:58:41;;;;;;;4.18;0.70;;;;;;;;;;6155571;23;20009;-58
2022/12/19 06:01:09;;;;;;;5.88;0.90;;;;;;;;;;6150675;23;21004;-58
2022/12/19 06:03:39;;;;;;;3.90;0.60;;;;;;;;;;6158930;23;20393;-57
2022/12/19 06:06:09;;;;;;;3.53;0.60;;;;;;;;;;6153657;23;20514;-58
2022/12/19 06:08:37;;;;;;;2.85;0.50;;;;;;;;;;6151992;23;20067;-57
2022/12/19 06:11:05;;;;;;;4.65;0.60;;;;;;;;;;6150053;23;20024;-58
2022/12/19 06:13:33;;;;;;;3.75;0.57;;;;;;;;;;6157950;23;20033;-58
2022/12/19 06:16:02;;;;;;;4.63;0.93;;;;;;;;;;6155046;23;20056;-58
2022/12/19 06:18:31;;;;;;;4.57;0.87;;;;;;;;;;6147444;23;20032;-59
2022/12/19 06:21:01;;;;;;;6.97;1.08;;;;;;;;;;6162163;23;20391;-58
2022/12/19 06:23:31;;;;;;;5.68;0.90;;;;;;;;;;6145482;23;20048;-58
2022/12/19 06:25:59;;;;;;;4.93;1.10;;;;;;;;;;6154779;23;20487;-62
2022/12/19 06:28:27;;;;;;;3.85;0.60;;;;;;;;;;6155254;23;20547;-58
2022/12/19 06:30:55;;;;;;;4.30;0.73;;;;;;;;;;6145444;23;20067;-59
2022/12/19 06:33:23;;;;;;;8.10;0.65;;;;;;;;;;6155587;23;20040;-58
2022/12/19 06:35:57;;;;;;;3.13;0.50;;;;;;;;;;6151228;23;20523;-59
2022/12/19 06:38:26;;;;;;;3.97;0.70;;;;;;;;;;6150295;23;20523;-58
2022/12/19 06:43:39;;;;;;;4.47;0.93;;;;;;;;;;6155196;23;20056;-60
2022/12/19 06:46:07;;;;;;;3.38;0.50;;;;;;;;;;6148262;23;20048;-58
2022/12/19 06:48:35;;;;;;;2.88;0.80;;;;;;;;;;6146944;23;20029;-59
2022/12/19 06:51:03;;;;;;;3.17;0.63;;;;;;;;;;6154572;23;20467;-58
2022/12/19 06:53:32;;;;;;;2.33;0.43;;;;;;;;;;6147976;23;20287;-58
2022/12/19 06:56:04;;;;;;;2.67;0.40;;;;;;;;;;6164221;23;20063;-58
2022/12/19 06:58:33;;;;;;;3.70;0.50;;;;;;;;;;6159080;23;20017;-59
2022/12/19 07:01:01;;;;;;;3.65;0.55;;;;;;;;;;6147914;23;20013;-58
2022/12/19 07:03:30;;;;;;;3.50;0.50;;;;;;;;;;6155290;23;20025;-59
2022/12/19 07:05:58;;;;;;;5.35;0.40;;;;;;;;;;6154243;23;20017;-58
2022/12/19 07:08:29;;;;;;;2.53;0.40;;;;;;;;;;6147416;23;20486;-58
2022/12/19 07:10:58;;;;;;;4.25;0.60;;;;;;;;;;6149088;23;20111;-57
2022/12/19 07:13:27;;;;;;;3.80;0.55;;;;;;;;;;6144285;23;20031;-59
2022/12/19 07:16:00;;;;;;;2.63;0.40;;;;;;;;;;6157946;23;20535;-59
2022/12/19 07:18:30;;;;;;;3.78;0.35;;;;;;;;;;6149407;23;20071;-59
2022/12/19 07:20:58;;;;;;;2.67;0.50;;;;;;;;;;6148393;23;20017;-59
2022/12/19 07:23:25;;;;;;;3.30;0.30;;;;;;;;;;6152354;23;20056;-58
2022/12/19 07:25:53;;;;;;;3.95;0.55;;;;;;;;;;6149596;23;20079;-58
2022/12/19 07:28:22;;;;;;;3.45;0.47;;;;;;;;;;6161269;23;20017;-57
2022/12/19 07:30:50;;;;;;;3.47;0.52;;;;;;;;;;6147547;23;20009;-58
2022/12/19 07:33:18;;;;;;;4.97;0.90;;;;;;;;;;6148424;23;20456;-58
2022/12/19 07:35:48;;;;;;;5.25;0.63;;;;;;;;;;6156254;23;20100;-58
2022/12/19 07:38:16;;;;;;;4.15;0.90;;;;;;;;;;6152807;23;20052;-58
2022/12/19 07:40:44;;;;;;;7.60;1.45;;;;;;;;;;6154488;23;20017;-59
2022/12/19 07:43:12;;;;;;;6.70;0.73;;;;;;;;;;6156553;23;20218;-59
2022/12/19 07:45:41;;;;;;;5.80;0.90;;;;;;;;;;6147722;23;20017;-58
2022/12/19 07:48:12;;;;;;;5.55;0.80;;;;;;;;;;6148730;23;20304;-59
2022/12/19 07:50:40;;;;;;;4.25;0.68;;;;;;;;;;6145568;23;20067;-59
2022/12/19 07:53:08;;;;;;;4.13;0.50;;;;;;;;;;6157550;23;20527;-59
2022/12/19 07:55:35;;;;;;;4.55;0.77;;;;;;;;;;6159370;23;20021;-57
2022/12/19 07:58:03;;;;;;;6.53;0.73;;;;;;;;;;6147639;23;20025;-59
2022/12/19 08:00:31;;;;;;;7.18;1.23;;;;;;;;;;6160018;23;20020;-59
2022/12/19 08:03:00;;;;;;;4.72;0.70;;;;;;;;;;6146542;23;20017;-58
2022/12/19 08:05:28;;;;;;;2.90;1.02;;;;;;;;;;6156471;23;20017;-59
2022/12/19 08:07:55;;;;;;;4.93;0.57;;;;;;;;;;6146750;23;20032;-58
2022/12/19 08:10:23;;;;;;;4.93;0.80;;;;;;;;;;6159342;23;20017;-58
2022/12/19 08:12:51;;;;;;;5.45;0.70;;;;;;;;;;6154489;23;20019;-58
2022/12/19 08:15:21;;;;;;;5.15;0.77;;;;;;;;;;6151630;23;20341;-58
2022/12/19 08:17:48;;;;;;;5.72;0.57;;;;;;;;;;6163178;23;20149;-58
2022/12/19 08:20:18;;;;;;;5.72;0.80;;;;;;;;;;6148107;23;20040;-57
2022/12/19 08:22:46;;;;;;;7.67;0.77;;;;;;;;;;6161409;23;20013;-58
2022/12/19 08:25:14;;;;;;;6.20;0.65;;;;;;;;;;6151179;23;20013;-58
2022/12/19 08:27:41;;;;;;;3.10;0.70;;;;;;;;;;6155327;23;20055;-58
2022/12/19 08:30:12;;;;;;;4.35;0.60;;;;;;;;;;6141965;23;20021;-59
2022/12/19 08:32:39;;;;;;;6.25;0.85;;;;;;;;;;6160124;23;20021;-59
2022/12/19 08:35:07;;;;;;;4.83;1.10;;;;;;;;;;6154973;23;20025;-59
2022/12/19 08:37:37;;;;;;;4.28;0.70;;;;;;;;;;6156703;23;20051;-59
2022/12/19 08:40:05;;;;;;;7.38;1.08;;;;;;;;;;6153284;23;20017;-59
2022/12/19 08:42:33;;;;;;;6.93;1.10;;;;;;;;;;6160849;23;20017;-59
2022/12/19 08:45:01;;;;;;;6.32;0.85;;;;;;;;;;6143647;23;20362;-59
2022/12/19 08:47:29;;;;;;;7.77;1.30;;;;;;;;;;6158953;23;20013;-59
2022/12/19 08:49:56;;;;;;;11.13;1.58;;;;;;;;;;6155382;23;20044;-58
2022/12/19 08:52:24;;;;;;;6.55;0.73;;;;;;;;;;6154575;23;20064;-59
2022/12/19 08:54:54;;;;;;;6.43;0.95;;;;;;;;;;6153276;23;20051;-59
2022/12/19 08:57:22;;;;;;;6.13;1.05;;;;;;;;;;6159986;23;20068;-62
2022/12/19 08:59:50;;;;;;;6.03;0.63;;;;;;;;;;6152207;23;20021;-59
2022/12/19 09:02:23;;;;;;;10.65;1.25;;;;;;;;;;6158678;23;20021;-59
2022/12/19 09:04:54;;;;;;;6.10;1.30;;;;;;;;;;6156138;23;20028;-59
2022/12/19 09:07:42;;;;;;;6.38;1.00;;;;;;;;;;6156139;23;20085;-59
2022/12/19 09:10:11;;;;;;;5.53;0.90;;;;;;;;;;6155444;23;20123;-59
2022/12/19 09:12:38;;;;;;;6.47;0.80;;;;;;;;;;6140787;23;20399;-59
2022/12/19 09:15:06;;;;;;;6.32;1.00;;;;;;;;;;6139434;23;20040;-59
2022/12/19 09:17:34;;;;;;;6.97;0.88;;;;;;;;;;6152150;23;20522;-59
2022/12/19 09:20:01;;;;;;;6.57;1.10;;;;;;;;;;6134296;23;20056;-59
2022/12/19 09:22:29;;;;;;;5.03;0.90;;;;;;;;;;6129890;23;20167;-60
2022/12/19 09:24:58;;;;;;;6.40;1.43;;;;;;;;;;6128468;23;20644;-59
2022/12/19 09:27:27;;;;;;;6.05;1.00;;;;;;;;;;6148910;23;20016;-60
2022/12/19 09:29:54;;;;;;;7.10;1.10;;;;;;;;;;6135859;23;20548;-60
2022/12/19 09:32:22;;;;;;;3.67;0.63;;;;;;;;;;6147845;23;20013;-60
2022/12/19 09:34:50;;;;;;;8.43;0.93;;;;;;;;;;6140820;23;20017;-59
2022/12/19 09:37:18;;;;;;;5.83;0.80;;;;;;;;;;6151399;23;20092;-58
2022/12/19 09:39:46;;;;;;;5.47;0.68;;;;;;;;;;6142056;23;20056;-59
2022/12/19 09:42:25;;;;;;;4.05;0.70;;;;;;;;;;6146921;23;20368;-59
2022/12/19 09:45:04;;;;;;;6.82;0.70;;;;;;;;;;6139221;23;20563;-59
2022/12/19 09:47:34;;;;;;;5.25;0.70;;;;;;;;;;6147383;23;20024;-59
2022/12/19 09:50:02;;;;;;;3.93;0.50;;;;;;;;;;6145394;23;20515;-59
2022/12/19 09:52:33;;;;;;;2.75;0.40;;;;;;;;;;6153274;23;20112;-59
2022/12/19 09:55:03;;;;;;;4.68;0.82;;;;;;;;;;6142248;23;20366;-59
2022/12/19 09:57:36;;;;;;;4.10;0.70;;;;;;;;;;6150581;23;20072;-59
2022/12/19 10:00:07;;;;;;;2.72;0.50;;;;;;;;;;6150352;23;20021;-59
2022/12/19 10:02:40;;;;;;;3.73;0.50;;;;;;;;;;6144028;23;20048;-59
2022/12/19 10:05:13;;;;;;;3.55;0.40;;;;;;;;;;6141627;23;20400;-59
2022/12/19 10:08:01;;;;;;;2.08;0.32;;;;;;;;;;6140786;23;20013;-59
2022/12/19 10:10:42;;;;;;;2.70;0.40;;;;;;;;;;6138274;23;20047;-57
2022/12/19 10:13:35;;;;;;;3.70;0.60;;;;;;;;;;6139673;23;20490;-59
2022/12/19 10:16:08;;;;;;;2.03;0.40;;;;;;;;;;6137809;23;20021;-59
2022/12/19 10:18:41;;;;;;;4.45;0.63;;;;;;;;;;6136752;23;20028;-58
2022/12/19 10:21:11;;;;;;;4.03;0.80;;;;;;;;;;6148089;23;20045;-59
2022/12/19 10:23:45;;;;;;;5.47;0.65;;;;;;;;;;6127285;23;20021;-59
2022/12/19 10:26:18;;;;;;;3.92;0.50;;;;;;;;;;6143012;23;20071;-59
2022/12/19 10:28:56;;;;;;;3.63;0.50;;;;;;;;;;6144505;23;20020;-59
2022/12/19 10:31:31;;;;;;;4.80;0.68;;;;;;;;;;6148168;23;20017;-59
2022/12/19 10:34:02;;;;;;;2.92;0.55;;;;;;;;;;6140496;23;20017;-59
2022/12/19 10:36:31;;;;;;;6.85;0.82;;;;;;;;;;6147607;23;20079;-59
2022/12/19 10:39:23;;;;;;;5.07;0.57;;;;;;;;;;6137612;23;20021;-59
2022/12/19 10:41:54;;;;;;;5.10;0.70;;;;;;;;;;6141539;23;20017;-59
2022/12/19 10:44:23;;;;;;;4.80;0.70;;;;;;;;;;6138394;23;20013;-60
2022/12/19 10:46:54;;;;;;;6.00;0.73;;;;;;;;;;6137406;23;20045;-59
2022/12/19 10:49:23;;;;;;;6.72;1.30;;;;;;;;;;6142170;23;20016;-60
2022/12/19 10:51:57;;;;;;;8.43;1.50;;;;;;;;;;6147177;23;20017;-59
2022/12/19 10:54:27;;;;;;;12.13;1.03;;;;;;;;;;6147111;23;20525;-60
2022/12/19 10:57:17;;;;;;;6.70;0.80;;;;;;;;;;6132789;23;20079;-60
2022/12/19 10:59:53;;;;;;;5.20;0.77;;;;;;;;;;6145619;23;20017;-60
2022/12/19 11:02:28;;;;;;;6.30;0.90;;;;;;;;;;6136374;23;20553;-60
2022/12/19 11:04:56;;;;;;;6.28;0.88;;;;;;;;;;6139861;23;20025;-58
2022/12/19 11:07:24;;;;;;;4.90;1.20;;;;;;;;;;6139044;23;20017;-60
2022/12/19 11:09:52;;;;;;;4.60;0.80;;;;;;;;;;6141058;23;20495;-60
2022/12/19 11:12:51;;;;;;;5.57;0.60;;;;;;;;;;6148051;23;20021;-60
2022/12/19 11:15:46;;;;;;;7.22;0.60;;;;;;;;;;6152988;23;20017;-60
2022/12/19 11:18:39;;;;;;;5.90;0.85;;;;;;;;;;6138973;23;20543;-60
2022/12/19 11:21:28;;;;;;;4.80;0.83;;;;;;;;;;6136915;23;20374;-60
2022/12/19 11:24:22;;;;;;;6.57;1.60;;;;;;;;;;6130364;23;20013;-60
2022/12/19 11:27:30;;;;;;;5.97;0.82;;;;;;;;;;6144262;23;20020;-60
2022/12/19 11:30:21;;;;;;;12.85;1.38;;;;;;;;;;6147911;23;20692;-59
2022/12/19 11:33:12;;;;;;;7.45;1.17;;;;;;;;;;6144041;23;20028;-60
2022/12/19 11:35:49;;;;;;;5.43;0.77;;;;;;;;;;6148831;23;20017;-59
2022/12/19 11:38:18;;;;;;;5.22;0.95;;;;;;;;;;6156326;23;20782;-60
2022/12/19 11:40:47;;;;;;;5.63;1.08;;;;;;;;;;6146444;23;20337;-60
2022/12/19 11:43:19;;;;;;;10.57;2.33;;;;;;;;;;6161356;23;20017;-58
2022/12/19 11:46:10;;;;;;;5.97;1.13;;;;;;;;;;6162488;23;20059;-60
2022/12/19 11:48:53;;;;;;;9.07;1.37;;;;;;;;;;6153383;23;20332;-60
2022/12/19 11:51:24;;;;;;;6.75;1.08;;;;;;;;;;6151753;23;20039;-60
2022/12/19 11:53:56;;;;;;;5.78;0.93;;;;;;;;;;6146395;23;20017;-60
2022/12/19 11:56:26;;;;;;;11.63;1.30;;;;;;;;;;6153889;23;20391;-60
2022/12/19 11:58:55;;;;;;;12.38;1.65;;;;;;;;;;6148493;23;20067;-60
2022/12/19 12:01:29;;;;;;;8.50;1.27;;;;;;;;;;6152302;23;20017;-60
2022/12/19 12:04:17;;;;;;;9.02;1.17;;;;;;;;;;6149554;23;20486;-59
2022/12/19 12:06:50;;;;;;;6.78;1.30;;;;;;;;;;6151144;23;20699;-60
2022/12/19 12:09:25;;;;;;;7.53;1.35;;;;;;;;;;6156688;23;20124;-59
2022/12/19 12:12:17;;;;;;;5.40;0.80;;;;;;;;;;6154613;23;20100;-60
2022/12/19 12:15:22;;;;;;;8.63;0.93;;;;;;;;;;6143564;23;20021;-59
2022/12/19 12:18:14;;;;;;;5.35;0.70;;;;;;;;;;6142249;23;20218;-60
2022/12/19 12:21:04;;;;;;;7.78;1.08;;;;;;;;;;6150139;23;20097;-60
2022/12/19 12:24:03;;;;;;;7.15;1.08;;;;;;;;;;6151235;23;20027;-60
2022/12/19 12:26:55;;;;;;;9.48;0.98;;;;;;;;;;6151518;23;20054;-61
2022/12/19 12:29:47;;;;;;;7.33;0.90;;;;;;;;;;6146115;23;20079;-60
2022/12/19 12:32:42;;;;;;;6.43;1.25;;;;;;;;;;6141404;23;20017;-61
2022/12/19 12:35:34;;;;;;;9.30;0.75;;;;;;;;;;6144108;23;20017;-60
2022/12/19 12:38:38;;;;;;;9.48;1.00;;;;;;;;;;6157547;23;20384;-60
2022/12/19 12:41:15;;;;;;;9.80;1.10;;;;;;;;;;6151137;23;20021;-61
2022/12/19 12:44:01;;;;;;;9.67;0.73;;;;;;;;;;6152913;23;20035;-60
2022/12/19 12:46:32;;;;;;;8.57;1.02;;;;;;;;;;6157835;23;20021;-60
2022/12/19 12:49:01;;;;;;;8.63;1.02;;;;;;;;;;6150930;23;20021;-60
2022/12/19 12:51:31;;;;;;;6.95;0.75;;;;;;;;;;6143109;23;20060;-60
2022/12/19 12:54:02;;;;;;;11.18;1.30;;;;;;;;;;6151264;23;20100;-60
2022/12/19 12:56:31;;;;;;;7.57;0.87;;;;;;;;;;6161607;23;20013;-60
2022/12/19 12:59:03;;;;;;;5.55;1.00;;;;;;;;;;6151348;23;20044;-59
2022/12/19 13:01:36;;;;;;;3.92;0.73;;;;;;;;;;6155080;23;20456;-60
2022/12/19 13:04:06;;;;;;;5.28;0.75;;;;;;;;;;6144111;23;20017;-60
2022/12/19 13:06:35;;;;;;;4.43;0.70;;;;;;;;;;6163600;23;20116;-60
2022/12/19 13:09:03;;;;;;;3.40;0.50;;;;;;;;;;6148174;23;20017;-60
2022/12/19 13:14:42;;;;;;;4.10;0.50;;;;;;;;;;6148216;23;20279;-60
2022/12/19 13:17:11;;;;;;;3.83;0.40;;;;;;;;;;6143965;23;20580;-60
2022/12/19 13:19:40;;;;;;;5.22;0.73;;;;;;;;;;6157428;23;20538;-60
2022/12/19 13:22:25;;;;;;;2.67;0.40;;;;;;;;;;6149301;23;20075;-60
2022/12/19 13:24:55;;;;;;;3.60;0.63;;;;;;;;;;6133007;23;20104;-60
2022/12/19 13:27:40;;;;;;;5.78;0.70;;;;;;;;;;6154912;23;20064;-60
2022/12/19 13:30:16;;;;;;;6.50;0.80;;;;;;;;;;6146563;23;20039;-61
2022/12/19 13:33:02;;;;;;;5.20;0.63;;;;;;;;;;6163456;23;20013;-60
2022/12/19 13:35:32;;;;;;;5.37;0.60;;;;;;;;;;6147959;23;20020;-60
2022/12/19 13:38:21;;;;;;;6.10;0.70;;;;;;;;;;6145890;23;20328;-60
2022/12/19 13:44:11;;;;;;;3.58;0.40;;;;;;;;;;6156343;23;20017;-60
2022/12/19 13:46:41;;;;;;;5.80;0.65;;;;;;;;;;6145134;23;20715;-61
2022/12/19 13:49:12;;;;;;;6.50;0.80;;;;;;;;;;6158847;23;20095;-60
2022/12/19 13:51:40;;;;;;;6.88;0.88;;;;;;;;;;6149558;23;20075;-61
2022/12/19 13:54:18;;;;;;;2.72;0.70;;;;;;;;;;6137309;23;20018;-60
2022/12/19 13:56:47;;;;;;;6.72;0.60;;;;;;;;;;6151950;23;20020;-60
2022/12/19 13:59:16;;;;;;;5.47;1.00;;;;;;;;;;6149825;23;20128;-60
2022/12/19 14:01:44;;;;;;;4.67;0.70;;;;;;;;;;6160410;23;20016;-61
2022/12/19 14:04:14;;;;;;;7.05;0.47;;;;;;;;;;6146200;23;20017;-60
2022/12/19 14:06:42;;;;;;;5.38;0.95;;;;;;;;;;6158514;23;20013;-59
2022/12/19 14:09:22;;;;;;;4.72;0.68;;;;;;;;;;6144913;23;20024;-60
2022/12/19 14:15:12;;;;;;;6.65;0.50;;;;;;;;;;6128133;23;20025;-60
2022/12/19 14:15:26;;;;;;;4.50;0.60;;;;;;;;;;6151418;23;20475;-60
2022/12/19 14:17:54;;;;;;;4.00;0.57;;;;;;;;;;6155739;23;20448;-60
2022/12/19 14:20:24;;;;;;;4.10;0.60;;;;;;;;;;6155787;23;20104;-60
2022/12/19 14:23:12;;;;;;;6.53;0.80;;;;;;;;;;6149597;23;20029;-60
2022/12/19 14:25:42;;;;;;;8.27;1.13;;;;;;;;;;6159072;23;20092;-60
2022/12/19 14:28:33;;;;;;;4.77;0.40;;;;;;;;;;6151901;23;20103;-60
2022/12/19 14:31:05;;;;;;;4.88;0.55;;;;;;;;;;6155670;23;20222;-60
2022/12/19 14:33:35;;;;;;;3.65;0.38;;;;;;;;;;6150214;23;20584;-60
2022/12/19 14:36:21;;;;;;;4.60;0.70;;;;;;;;;;6154317;23;20549;-60
2022/12/19 14:38:54;;;;;;;5.80;0.47;;;;;;;;;;6151916;23;20024;-60
2022/12/19 14:44:42;;;;;;;4.68;0.60;;;;;;;;;;6129904;23;20064;-60
2022/12/19 14:47:35;;;;;;;3.50;0.65;;;;;;;;;;6131030;23;20579;-60
2022/12/19 14:50:27;;;;;;;5.68;0.75;;;;;;;;;;6157025;23;20017;-60
2022/12/19 14:53:16;;;;;;;5.50;0.88;;;;;;;;;;6137158;23;20096;-60
2022/12/19 14:56:05;;;;;;;4.03;0.70;;;;;;;;;;6154817;23;20365;-60
2022/12/19 14:58:54;;;;;;;6.85;0.40;;;;;;;;;;6138086;23;20013;-60
2022/12/19 15:01:24;;;;;;;4.60;0.80;;;;;;;;;;6144595;23;20017;-60
2022/12/19 15:03:57;;;;;;;4.22;0.77;;;;;;;;;;6157741;23;20013;-60
2022/12/19 15:06:45;;;;;;;9.05;0.80;;;;;;;;;;6143500;23;20541;-60
2022/12/19 15:09:36;;;;;;;3.50;0.50;;;;;;;;;;6158863;23;20013;-60
2022/12/19 15:15:37;;;;;;;6.78;0.90;;;;;;;;;;6156715;23;20353;-60
2022/12/19 15:18:17;;;;;;;3.08;0.57;;;;;;;;;;6153293;23;20024;-60
2022/12/19 15:20:47;;;;;;;6.15;1.13;;;;;;;;;;6155207;23;20459;-60
2022/12/19 15:23:15;;;;;;;4.97;0.73;;;;;;;;;;6144637;23;20040;-60
2022/12/19 15:25:49;;;;;;;4.78;0.77;;;;;;;;;;6154380;23;20079;-60
2022/12/19 15:28:37;;;;;;;4.35;0.70;;;;;;;;;;6147816;23;20063;-60
2022/12/19 15:31:06;;;;;;;4.32;0.43;;;;;;;;;;6155761;23;20033;-59
2022/12/19 15:33:34;;;;;;;6.07;0.60;;;;;;;;;;6150888;23;20017;-59